Time;durP1;ratioP1;P1;durP2;ratioP2;P2;SDS_P1;SDS_P2;PMS_P1;PMS_P2;Temp;Humidity;BMP_temperature;BMP_pressure;BME280_temperature;BME280_humidity;BME280_pressure;Samples;Min_cycle;Max_cycle;Signal;HPM_P1;HPM_P2
2024/03/04 00:02:00;;;;;;;0.10;0.10;;;;;;;10.33;68.50;100898.19;5086508;28;20042;-77
2024/03/04 00:04:27;;;;;;;0.10;0.10;;;;;;;10.38;68.84;100892.84;5091577;28;20445;-77
2024/03/04 00:06:53;;;;;;;1.75;1.65;;;;;;;10.38;68.58;100899.88;5095190;28;20032;-77
2024/03/04 00:09:20;;;;;;;0.10;0.10;;;;;;;10.42;68.44;100904.22;5096120;28;20017;-78
2024/03/04 00:11:46;;;;;;;0.10;0.10;;;;;;;10.32;68.72;100911.44;5095187;28;20032;-78
2024/03/04 00:14:12;;;;;;;0.10;0.10;;;;;;;10.28;68.85;100918.56;5079979;28;20028;-77
2024/03/04 00:16:42;;;;;;;0.10;0.10;;;;;;;10.40;68.54;100908.69;5094632;28;20023;-77
2024/03/04 00:19:08;;;;;;;2.75;1.10;;;;;;;10.41;68.54;100915.75;5095005;28;20036;-77
2024/03/04 00:21:34;;;;;;;0.10;0.10;;;;;;;10.36;68.53;100914.03;5078274;28;20035;-78
2024/03/04 00:24:01;;;;;;;0.10;0.10;;;;;;;10.36;68.46;100913.16;5076322;28;20036;-77
2024/03/04 00:26:27;;;;;;;0.90;0.55;;;;;;;10.35;68.78;100917.56;5077835;28;20048;-78
2024/03/04 00:28:53;;;;;;;0.10;0.10;;;;;;;10.33;68.95;100916.72;5083920;28;20032;-78
2024/03/04 00:31:19;;;;;;;0.10;0.10;;;;;;;10.32;68.63;100907.03;5076257;28;20028;-77
2024/03/04 00:33:45;;;;;;;0.10;0.10;;;;;;;10.37;68.42;100914.94;5082471;28;20039;-77
2024/03/04 00:36:12;;;;;;;0.10;0.10;;;;;;;10.40;68.33;100925.44;5092449;28;20024;-78
2024/03/04 00:38:38;;;;;;;0.10;0.10;;;;;;;10.41;68.41;100929.00;5084279;28;20032;-78
2024/03/04 00:41:06;;;;;;;0.10;0.10;;;;;;;10.31;68.66;100925.59;5095617;28;20040;-79
2024/03/04 00:43:32;;;;;;;0.10;0.10;;;;;;;10.41;68.42;100921.91;5096457;28;20466;-78
2024/03/04 00:45:58;;;;;;;0.10;0.10;;;;;;;10.38;68.42;100926.38;5092839;28;20035;-77
2024/03/04 00:48:24;;;;;;;0.10;0.10;;;;;;;10.41;68.27;100927.19;5090948;28;20111;-78
2024/03/04 00:50:52;;;;;;;0.10;0.10;;;;;;;10.40;68.07;100932.53;5086069;28;20044;-78
2024/03/04 00:53:18;;;;;;;0.20;0.20;;;;;;;10.42;68.13;100933.34;5094943;28;20024;-78
2024/03/04 00:55:45;;;;;;;0.00;0.00;;;;;;;10.34;68.25;100930.81;5094705;28;20479;-79
2024/03/04 00:58:11;;;;;;;0.50;0.47;;;;;;;10.40;68.10;100929.88;5094527;28;20028;-78
2024/03/04 01:00:38;;;;;;;0.10;0.10;;;;;;;10.29;68.08;100933.56;5091370;28;20028;-77
2024/03/04 01:03:04;;;;;;;0.10;0.10;;;;;;;10.30;68.10;100930.00;5090821;28;20038;-77
2024/03/04 01:05:31;;;;;;;0.50;0.50;;;;;;;10.28;68.13;100937.13;5084714;28;20086;-77
2024/03/04 01:07:57;;;;;;;0.10;0.10;;;;;;;10.25;68.74;100934.50;5074743;28;20029;-78
2024/03/04 01:10:23;;;;;;;0.65;0.65;;;;;;;10.20;68.51;100933.72;5073029;28;20037;-77
2024/03/04 01:12:49;;;;;;;0.10;0.10;;;;;;;10.28;68.36;100930.94;5073320;28;20369;-78
2024/03/04 01:15:16;;;;;;;3.95;0.95;;;;;;;10.20;68.43;100931.06;5073193;28;20020;-77
2024/03/04 01:17:42;;;;;;;0.40;0.40;;;;;;;10.30;68.07;100934.44;5075817;28;20084;-78
2024/03/04 01:20:13;;;;;;;0.08;0.08;;;;;;;10.32;68.13;100933.50;5090753;28;20032;-78
2024/03/04 01:22:39;;;;;;;0.10;0.10;;;;;;;10.31;67.83;100952.94;5092855;28;20028;-78
2024/03/04 01:25:06;;;;;;;0.10;0.10;;;;;;;10.24;68.13;100955.72;5093072;28;20016;-77
2024/03/04 01:27:32;;;;;;;0.10;0.10;;;;;;;10.22;67.96;100945.16;5092054;28;20032;-78
2024/03/04 01:29:58;;;;;;;1.85;1.38;;;;;;;10.22;68.11;100939.88;5082827;28;20021;-82
2024/03/04 01:32:25;;;;;;;0.20;0.20;;;;;;;10.27;67.87;100945.06;5084933;28;20073;-78
2024/03/04 01:34:51;;;;;;;0.00;0.00;;;;;;;10.25;67.72;100952.19;5072638;28;20078;-78
2024/03/04 01:37:17;;;;;;;0.10;0.10;;;;;;;10.25;67.51;100965.41;5074532;28;20035;-78
2024/03/04 01:39:43;;;;;;;0.10;0.10;;;;;;;10.20;68.01;100958.44;5072390;28;20446;-78
2024/03/04 01:42:09;;;;;;;0.10;0.10;;;;;;;10.20;67.27;100963.72;5071521;28;20039;-77
2024/03/04 01:44:36;;;;;;;0.10;0.10;;;;;;;10.27;67.55;100961.84;5087488;28;20114;-76
2024/03/04 01:47:05;;;;;;;0.30;0.30;;;;;;;10.31;67.42;100960.88;5077704;28;20059;-77
2024/03/04 01:49:33;;;;;;;0.10;0.10;;;;;;;10.31;67.62;100968.81;5086595;28;20386;-77
2024/03/04 01:52:00;;;;;;;0.10;0.10;;;;;;;10.30;66.84;100977.66;5090934;28;20024;-77
2024/03/04 01:54:27;;;;;;;0.35;0.30;;;;;;;10.27;66.80;100982.13;5091334;28;20114;-77
2024/03/04 01:56:54;;;;;;;0.10;0.10;;;;;;;10.27;66.71;100977.72;5090472;28;20055;-77
2024/03/04 01:59:20;;;;;;;0.10;0.10;;;;;;;10.16;66.58;100992.91;5085738;28;20024;-76
2024/03/04 02:01:49;;;;;;;0.10;0.10;;;;;;;10.18;66.44;100999.94;5090844;28;20028;-77
2024/03/04 02:04:15;;;;;;;0.10;0.10;;;;;;;10.17;66.01;101006.13;5080631;28;20045;-78
2024/03/04 02:06:41;;;;;;;0.10;0.10;;;;;;;10.09;66.18;101015.09;5075845;28;20035;-78
2024/03/04 02:09:12;;;;;;;0.03;0.03;;;;;;;10.17;66.12;101023.81;5076059;28;20029;-78
2024/03/04 02:11:38;;;;;;;0.10;0.10;;;;;;;10.14;66.23;101015.88;5075407;28;20028;-79
2024/03/04 02:14:06;;;;;;;0.10;0.10;;;;;;;10.14;65.56;101021.19;5087102;28;20060;-79
2024/03/04 02:16:33;;;;;;;2.17;2.08;;;;;;;10.18;65.77;101022.88;5092409;28;20020;-78
2024/03/04 02:19:00;;;;;;;0.10;0.10;;;;;;;10.25;65.60;101027.19;5081770;28;20028;-78
2024/03/04 02:21:30;;;;;;;0.10;0.10;;;;;;;10.14;65.51;101026.47;5074766;28;20552;-79
2024/03/04 02:23:57;;;;;;;0.10;0.10;;;;;;;10.24;64.97;101020.13;5086366;28;20036;-77
2024/03/04 02:26:23;;;;;;;0.10;0.10;;;;;;;10.27;65.18;101025.41;5085436;28;20514;-77
2024/03/04 02:28:49;;;;;;;0.10;0.10;;;;;;;10.19;65.22;101028.19;5090006;28;20035;-78
2024/03/04 02:31:16;;;;;;;0.10;0.10;;;;;;;10.17;64.97;101029.09;5096403;28;20031;-78
2024/03/04 02:33:44;;;;;;;5.00;3.20;;;;;;;10.22;64.84;101029.91;5087721;28;20043;-78
2024/03/04 02:36:11;;;;;;;0.10;0.10;;;;;;;10.17;65.02;101044.97;5076957;28;20054;-78
2024/03/04 02:38:38;;;;;;;0.10;0.10;;;;;;;10.18;64.80;101049.34;5078699;28;20486;-78
2024/03/04 02:41:04;;;;;;;0.10;0.10;;;;;;;10.09;64.55;101049.50;5078056;28;20031;-78
2024/03/04 02:43:31;;;;;;;0.10;0.10;;;;;;;10.09;64.70;101053.00;5087279;28;20024;-78
2024/03/04 02:45:57;;;;;;;0.10;0.10;;;;;;;10.11;64.13;101051.22;5076559;28;20028;-78
2024/03/04 02:48:23;;;;;;;0.10;0.10;;;;;;;10.07;64.16;101053.94;5092232;28;20093;-77
2024/03/04 02:50:50;;;;;;;0.10;0.10;;;;;;;10.07;64.09;101048.66;5091391;28;20054;-78
2024/03/04 02:53:16;;;;;;;0.10;0.10;;;;;;;10.12;63.93;101050.34;5086833;28;20044;-78
2024/03/04 02:55:43;;;;;;;0.10;0.10;;;;;;;10.13;64.00;101053.84;5078664;28;20060;-79
2024/03/04 02:58:09;;;;;;;0.10;0.10;;;;;;;10.20;63.83;101050.22;5079389;28;20074;-79
2024/03/04 03:00:35;;;;;;;0.10;0.10;;;;;;;10.17;63.54;101055.56;5086778;28;20020;-79
2024/03/04 03:03:02;;;;;;;0.10;0.10;;;;;;;10.20;63.70;101050.22;5085900;28;20033;-78
2024/03/04 03:05:28;;;;;;;0.10;0.10;;;;;;;10.20;63.76;101045.81;5085405;28;20029;-78
2024/03/04 03:07:54;;;;;;;0.10;0.10;;;;;;;10.21;63.48;101054.63;5076819;28;20103;-78
2024/03/04 03:10:21;;;;;;;0.10;0.10;;;;;;;10.17;63.57;101056.44;5076613;28;20029;-78
2024/03/04 03:12:47;;;;;;;0.10;0.10;;;;;;;10.22;63.63;101059.03;5076309;28;20091;-78
2024/03/04 03:15:14;;;;;;;0.10;0.10;;;;;;;10.25;63.71;101064.25;5077230;28;20032;-78
2024/03/04 03:17:40;;;;;;;0.10;0.10;;;;;;;10.25;63.75;101064.25;5093259;28;20103;-78
2024/03/04 03:20:16;;;;;;;0.10;0.10;;;;;;;10.29;63.56;101063.34;5097051;28;20040;-78
2024/03/04 03:22:44;;;;;;;0.10;0.10;;;;;;;10.31;63.51;101077.41;5097802;28;20028;-79
2024/03/04 03:25:11;;;;;;;0.10;0.10;;;;;;;10.30;63.38;101074.78;5097891;28;20024;-78
2024/03/04 03:27:38;;;;;;;0.10;0.10;;;;;;;10.29;63.33;101078.34;5091596;28;20432;-79
2024/03/04 03:30:06;;;;;;;0.10;0.10;;;;;;;10.29;63.48;101076.59;5083517;28;20051;-78
2024/03/04 03:32:35;;;;;;;0.10;0.10;;;;;;;10.25;63.37;101080.16;5082238;28;20046;-78
2024/03/04 03:35:01;;;;;;;0.10;0.10;;;;;;;10.28;63.50;101074.81;5098285;28;20025;-78
2024/03/04 03:37:28;;;;;;;0.10;0.10;;;;;;;10.29;63.42;101075.69;5110049;28;20665;-78
2024/03/04 03:39:54;;;;;;;0.10;0.10;;;;;;;10.29;63.65;101071.28;5113691;28;20038;-77
2024/03/04 03:42:21;;;;;;;0.10;0.10;;;;;;;10.29;63.90;101075.69;5113865;28;20035;-77
2024/03/04 03:44:47;;;;;;;0.10;0.10;;;;;;;10.28;63.81;101074.81;5114526;28;20077;-77
2024/03/04 03:47:16;;;;;;;0.10;0.10;;;;;;;10.31;63.64;101084.50;5108460;28;20020;-77
2024/03/04 03:49:42;;;;;;;0.10;0.10;;;;;;;10.28;63.55;101082.78;5095973;28;20029;-78
2024/03/04 03:52:08;;;;;;;0.10;0.10;;;;;;;10.25;63.92;101085.44;5087964;28;20036;-79
2024/03/04 03:54:34;;;;;;;0.10;0.10;;;;;;;10.27;63.58;101094.25;5077397;28;20054;-79
2024/03/04 03:57:00;;;;;;;0.10;0.10;;;;;;;10.25;63.85;101095.19;5089534;28;20028;-78
2024/03/04 03:59:26;;;;;;;0.10;0.10;;;;;;;10.23;63.46;101107.56;5091299;28;20043;-79
2024/03/04 04:01:53;;;;;;;0.10;0.10;;;;;;;10.21;63.51;101112.88;5093497;28;20079;-79
2024/03/04 04:04:19;;;;;;;0.10;0.10;;;;;;;10.21;63.64;101120.81;5097130;28;20032;-79
2024/03/04 04:06:45;;;;;;;0.10;0.10;;;;;;;10.09;63.55;101116.56;5097022;28;20028;-80
2024/03/04 04:09:11;;;;;;;0.10;0.10;;;;;;;10.13;63.50;101123.59;5097569;28;20082;-79
2024/03/04 04:11:41;;;;;;;0.10;0.10;;;;;;;10.12;63.59;101131.53;5095539;28;20471;-79
2024/03/04 04:14:07;;;;;;;0.10;0.10;;;;;;;10.11;63.71;101130.66;5088517;28;20044;-79
2024/03/04 04:16:33;;;;;;;0.10;0.10;;;;;;;10.12;63.69;101131.53;5082263;28;20693;-79
2024/03/04 04:19:00;;;;;;;0.10;0.10;;;;;;;10.15;63.57;101136.78;5094956;28;20036;-78
2024/03/04 04:21:26;;;;;;;0.10;0.10;;;;;;;10.06;63.67;101142.22;5095256;28;20039;-78
2024/03/04 04:23:52;;;;;;;0.00;0.00;;;;;;;10.14;63.55;101145.63;5095511;28;20038;-79
2024/03/04 04:26:26;;;;;;;0.10;0.10;;;;;;;10.20;63.49;101140.25;5094177;28;20028;-79
2024/03/04 04:28:52;;;;;;;0.10;0.10;;;;;;;10.16;63.84;101143.84;5095498;28;20052;-79
2024/03/04 04:31:21;;;;;;;0.10;0.10;;;;;;;10.13;63.94;101146.53;5086212;28;20129;-78
2024/03/04 04:33:47;;;;;;;0.10;0.10;;;;;;;10.13;63.69;101143.88;5075704;28;20020;-79
2024/03/04 04:36:15;;;;;;;0.47;0.30;;;;;;;10.03;63.70;101127.22;5074025;28;20485;-78
2024/03/04 04:38:41;;;;;;;0.22;0.22;;;;;;;10.10;63.79;101134.19;5075257;28;20039;-79
2024/03/04 04:41:07;;;;;;;0.10;0.10;;;;;;;9.99;63.89;101131.72;5083908;28;20029;-79
2024/03/04 04:43:33;;;;;;;0.10;0.10;;;;;;;10.02;63.93;101126.38;5093221;28;20050;-79
2024/03/04 04:46:00;;;;;;;0.10;0.10;;;;;;;9.99;64.10;101134.38;5092900;28;20043;-79
2024/03/04 04:48:26;;;;;;;0.10;0.10;;;;;;;9.96;64.14;101126.44;5087725;28;20033;-79
2024/03/04 04:50:52;;;;;;;0.10;0.10;;;;;;;9.96;64.15;101130.88;5074480;28;20453;-80
2024/03/04 04:53:20;;;;;;;0.10;0.10;;;;;;;9.85;63.99;101128.34;5075851;28;20029;-79
2024/03/04 04:55:46;;;;;;;0.10;0.10;;;;;;;9.90;64.03;101134.47;5075353;28;20028;-79
2024/03/04 04:58:14;;;;;;;0.10;0.10;;;;;;;9.82;64.13;101137.22;5076230;28;20020;-79
2024/03/04 05:00:41;;;;;;;0.10;0.10;;;;;;;9.83;64.10;101136.31;5074615;28;20155;-79
2024/03/04 05:03:07;;;;;;;0.10;0.10;;;;;;;9.81;64.06;101138.09;5092565;28;20053;-78
2024/03/04 05:05:33;;;;;;;0.10;0.10;;;;;;;9.82;64.05;101134.56;5083887;28;20025;-78
2024/03/04 05:08:00;;;;;;;0.10;0.10;;;;;;;9.79;64.04;101133.72;5074859;28;20035;-78
2024/03/04 05:10:26;;;;;;;0.10;0.10;;;;;;;9.80;64.01;101120.47;5074837;28;20021;-78
2024/03/04 05:12:52;;;;;;;0.10;0.10;;;;;;;9.81;64.14;101129.31;5086191;28;20399;-77
2024/03/04 05:15:18;;;;;;;0.10;0.10;;;;;;;9.82;63.98;101133.66;5080438;28;20484;-78
2024/03/04 05:17:46;;;;;;;0.10;0.10;;;;;;;9.83;64.46;101136.31;5086362;28;20027;-78
2024/03/04 05:20:15;;;;;;;0.10;0.10;;;;;;;9.82;64.19;101136.31;5092491;28;20036;-78
2024/03/04 05:22:42;;;;;;;0.10;0.10;;;;;;;9.83;64.28;101141.63;5092939;28;20035;-78
2024/03/04 05:25:09;;;;;;;0.10;0.10;;;;;;;9.86;63.97;101143.34;5075246;28;20036;-78
2024/03/04 05:27:35;;;;;;;0.20;0.20;;;;;;;9.84;63.92;101158.34;5091534;28;20028;-79
2024/03/04 05:30:02;;;;;;;0.10;0.10;;;;;;;9.82;63.98;101158.38;5094182;28;20024;-79
2024/03/04 05:32:28;;;;;;;0.10;0.10;;;;;;;9.83;64.09;101161.88;5092896;28;20028;-78
2024/03/04 05:34:54;;;;;;;0.10;0.10;;;;;;;9.83;64.07;101167.19;5082499;28;20021;-79
2024/03/04 05:37:21;;;;;;;0.00;0.00;;;;;;;9.80;64.35;101175.19;5074100;28;20029;-79
2024/03/04 05:39:48;;;;;;;0.10;0.10;;;;;;;9.82;64.19;101176.91;5074674;28;20044;-78
2024/03/04 05:42:15;;;;;;;0.10;0.10;;;;;;;9.83;63.80;101177.78;5076851;28;20021;-79
2024/03/04 05:44:41;;;;;;;0.10;0.10;;;;;;;9.75;64.33;101184.94;5090955;28;20051;-78
2024/03/04 05:47:08;;;;;;;0.10;0.10;;;;;;;9.76;64.25;101191.97;5086522;28;20024;-77
2024/03/04 05:49:35;;;;;;;0.10;0.10;;;;;;;9.77;63.92;101186.66;5074009;28;20025;-78
2024/03/04 05:52:02;;;;;;;0.10;0.10;;;;;;;9.77;64.05;101196.38;5073844;28;20028;-78
2024/03/04 05:54:28;;;;;;;0.10;0.10;;;;;;;9.80;63.71;101193.69;5074334;28;20060;-78
2024/03/04 05:56:54;;;;;;;0.10;0.10;;;;;;;9.74;63.79;101194.63;5085125;28;20031;-78
2024/03/04 05:59:20;;;;;;;0.10;0.10;;;;;;;9.74;63.68;101199.06;5080453;28;20029;-78
2024/03/04 06:01:46;;;;;;;0.10;0.10;;;;;;;9.71;63.75;101195.53;5086874;28;20055;-78
2024/03/04 06:04:13;;;;;;;0.10;0.10;;;;;;;9.66;63.81;101200.00;5095897;28;20032;-78
2024/03/04 06:06:40;;;;;;;0.10;0.10;;;;;;;9.68;63.66;101203.53;5087687;28;20475;-79
2024/03/04 06:09:08;;;;;;;0.08;0.08;;;;;;;9.68;63.53;101206.19;5091345;28;20052;-78
2024/03/04 06:11:34;;;;;;;0.10;0.10;;;;;;;9.68;63.85;101206.19;5079414;28;20115;-78
2024/03/04 06:14:01;;;;;;;0.10;0.10;;;;;;;9.70;63.83;101206.16;5076141;28;20396;-78
2024/03/04 06:16:27;;;;;;;0.10;0.10;;;;;;;9.66;63.67;101207.94;5075878;28;20050;-78
2024/03/04 06:18:53;;;;;;;0.10;0.10;;;;;;;9.71;63.62;101211.41;5075601;28;20036;-78
2024/03/04 06:21:19;;;;;;;0.10;0.10;;;;;;;9.75;63.75;101211.41;5077898;28;20082;-77
2024/03/04 06:23:45;;;;;;;0.10;0.10;;;;;;;9.74;63.73;101210.50;5076577;28;20025;-77
2024/03/04 06:26:12;;;;;;;0.10;0.10;;;;;;;9.76;63.49;101210.47;5089114;28;20647;-78
2024/03/04 06:28:38;;;;;;;0.10;0.10;;;;;;;9.79;63.55;101207.81;5097521;28;20032;-78
2024/03/04 06:31:05;;;;;;;0.10;0.10;;;;;;;9.80;63.68;101220.16;5090266;28;20532;-78
2024/03/04 06:33:31;;;;;;;0.10;0.10;;;;;;;9.82;63.48;101224.53;5089103;28;20099;-77
2024/03/04 06:35:57;;;;;;;0.10;0.10;;;;;;;9.84;63.69;101222.78;5076674;28;20032;-78
2024/03/04 06:38:25;;;;;;;0.10;0.10;;;;;;;9.86;63.46;101215.66;5081904;28;20698;-78
2024/03/04 06:40:52;;;;;;;0.10;0.10;;;;;;;9.88;63.59;101216.53;5092958;28;20147;-78
2024/03/04 06:43:19;;;;;;;0.00;0.00;;;;;;;9.91;63.68;101212.13;5097876;28;20468;-79
2024/03/04 06:45:45;;;;;;;0.10;0.10;;;;;;;9.92;63.54;101220.03;5093605;28;20035;-79
2024/03/04 06:48:11;;;;;;;0.10;0.10;;;;;;;9.92;63.50;101220.03;5080673;28;20077;-79
2024/03/04 06:50:37;;;;;;;0.10;0.10;;;;;;;9.93;63.73;101218.25;5087766;28;20062;-79
2024/03/04 06:53:04;;;;;;;0.10;0.10;;;;;;;9.94;63.57;101220.88;5077863;28;20028;-79
2024/03/04 06:55:30;;;;;;;0.10;0.10;;;;;;;9.93;63.55;101231.47;5078123;28;20081;-79
2024/03/04 06:57:56;;;;;;;0.10;0.10;;;;;;;9.94;63.34;101239.41;5077763;28;20085;-79
2024/03/04 07:00:22;;;;;;;0.20;0.20;;;;;;;9.92;63.61;101229.72;5088293;28;20245;-79
2024/03/04 07:02:48;;;;;;;0.10;0.10;;;;;;;9.93;63.24;101237.66;5086694;28;20040;-79
2024/03/04 07:05:15;;;;;;;0.10;0.10;;;;;;;9.97;63.56;101239.38;5089908;28;20027;-80
2024/03/04 07:07:41;;;;;;;0.10;0.10;;;;;;;9.97;63.68;101242.03;5088571;28;20020;-79
2024/03/04 07:10:08;;;;;;;0.10;0.10;;;;;;;9.99;63.70;101245.53;5097673;28;20039;-80
2024/03/04 07:12:36;;;;;;;0.10;0.10;;;;;;;10.03;63.58;101249.00;5082350;28;20435;-79
2024/03/04 07:15:04;;;;;;;0.10;0.10;;;;;;;10.04;63.55;101251.66;5089821;28;20031;-83
2024/03/04 07:17:30;;;;;;;0.10;0.10;;;;;;;10.05;63.30;101263.13;5088093;28;20043;-79
2024/03/04 07:19:57;;;;;;;0.10;0.10;;;;;;;10.07;63.44;101266.63;5091069;28;20775;-79
2024/03/04 07:22:23;;;;;;;0.10;0.10;;;;;;;10.07;63.40;101274.56;5105480;28;20165;-78
2024/03/04 07:24:49;;;;;;;0.10;0.10;;;;;;;10.07;63.58;101273.69;5108921;28;20095;-78
2024/03/04 07:27:16;;;;;;;0.10;0.10;;;;;;;10.07;63.13;101277.22;5086042;28;20102;-79
2024/03/04 07:29:42;;;;;;;0.15;0.15;;;;;;;10.04;63.16;101283.44;5078483;28;20119;-79
2024/03/04 07:32:08;;;;;;;0.10;0.10;;;;;;;10.07;63.08;101281.63;5089773;28;20027;-78
2024/03/04 07:34:34;;;;;;;0.10;0.10;;;;;;;10.06;63.09;101274.59;5088454;28;20058;-80
2024/03/04 07:37:01;;;;;;;0.10;0.10;;;;;;;10.02;63.05;101287.84;5076036;28;20044;-79
2024/03/04 07:39:27;;;;;;;0.10;0.10;;;;;;;10.08;63.29;101283.38;5078679;28;20039;-78
2024/03/04 07:41:53;;;;;;;0.10;0.10;;;;;;;10.10;63.19;101285.13;5084805;28;20040;-79
2024/03/04 07:44:19;;;;;;;0.10;0.10;;;;;;;10.10;63.19;101292.19;5078482;28;20047;-79
2024/03/04 07:46:47;;;;;;;0.10;0.10;;;;;;;10.11;63.14;101289.53;5076292;28;20025;-78
2024/03/04 07:49:13;;;;;;;0.10;0.10;;;;;;;10.13;62.96;101302.75;5083173;28;20514;-78
2024/03/04 07:51:40;;;;;;;0.10;0.10;;;;;;;10.18;62.87;101296.50;5088581;28;20730;-79
2024/03/04 07:54:06;;;;;;;0.10;0.10;;;;;;;10.17;62.68;101299.19;5083359;28;20384;-79
2024/03/04 07:56:33;;;;;;;0.10;0.10;;;;;;;10.18;62.87;101304.47;5075927;28;20032;-79
2024/03/04 07:59:00;;;;;;;0.10;0.10;;;;;;;10.17;62.80;101302.69;5086865;28;20024;-79
2024/03/04 08:01:26;;;;;;;1.13;0.80;;;;;;;10.17;62.56;101309.78;5085741;28;20056;-79
2024/03/04 08:03:52;;;;;;;0.10;0.10;;;;;;;10.23;62.25;101319.41;5084129;28;20028;-79
2024/03/04 08:06:20;;;;;;;0.10;0.10;;;;;;;10.24;62.46;101300.84;5083493;28;20020;-79
2024/03/04 08:08:48;;;;;;;0.10;0.10;;;;;;;10.35;62.65;101320.16;5086954;28;20491;-79
2024/03/04 08:11:15;;;;;;;0.10;0.10;;;;;;;10.36;62.12;101313.97;5087919;28;20024;-79
2024/03/04 08:13:41;;;;;;;0.10;0.10;;;;;;;10.46;62.53;101313.88;5088299;28;20024;-78
2024/03/04 08:16:07;;;;;;;0.10;0.10;;;;;;;10.50;61.84;101323.53;5085041;28;20047;-78
2024/03/04 08:18:33;;;;;;;0.10;0.10;;;;;;;10.59;61.82;101312.84;5085628;28;20041;-79
2024/03/04 08:20:59;;;;;;;0.10;0.10;;;;;;;10.70;62.01;101325.94;5074932;28;20037;-77
2024/03/04 08:23:25;;;;;;;0.10;0.10;;;;;;;10.78;61.54;101328.50;5074528;28;20067;-78
2024/03/04 08:25:51;;;;;;;0.10;0.10;;;;;;;10.84;61.45;101315.16;5087647;28;20028;-77
2024/03/04 08:28:18;;;;;;;0.10;0.10;;;;;;;10.89;61.11;101313.34;5093636;28;20117;-78
2024/03/04 08:30:44;;;;;;;0.10;0.10;;;;;;;10.98;61.10;101304.38;5093887;28;20028;-78
2024/03/04 08:33:10;;;;;;;0.10;0.10;;;;;;;10.99;60.08;101300.81;5097434;28;20036;-78
2024/03/04 08:35:36;;;;;;;0.10;0.10;;;;;;;11.07;60.33;101308.69;5095270;28;20075;-79
2024/03/04 08:38:02;;;;;;;0.10;0.10;;;;;;;11.04;59.68;101308.72;5078931;28;20027;-78
2024/03/04 08:40:30;;;;;;;0.10;0.10;;;;;;;11.10;60.95;101308.63;5087453;28;20028;-78
2024/03/04 08:42:57;;;;;;;0.10;0.10;;;;;;;11.13;60.49;101313.91;5087673;28;20028;-78
2024/03/04 08:45:23;;;;;;;0.10;0.10;;;;;;;11.19;59.94;101307.59;5087473;28;20096;-77
2024/03/04 08:47:50;;;;;;;0.10;0.10;;;;;;;11.20;59.68;101310.22;5095015;28;20027;-79
2024/03/04 08:50:16;;;;;;;0.10;0.10;;;;;;;11.25;59.19;101307.50;5094699;28;20020;-78
2024/03/04 08:52:42;;;;;;;0.10;0.10;;;;;;;11.26;59.14;101310.13;5088016;28;20028;-78
2024/03/04 08:55:09;;;;;;;0.20;0.20;;;;;;;11.33;59.76;101310.94;5084741;28;20031;-79
2024/03/04 08:57:35;;;;;;;0.10;0.10;;;;;;;11.35;59.46;101302.94;5085910;28;20035;-77
2024/03/04 09:00:01;;;;;;;0.10;0.10;;;;;;;11.40;59.28;101301.09;5074744;28;20450;-79
2024/03/04 09:02:27;;;;;;;0.13;0.13;;;;;;;11.43;59.59;101301.91;5074902;28;20059;-78
2024/03/04 09:04:53;;;;;;;3.20;1.25;;;;;;;11.43;58.57;101309.00;5098777;28;20028;-78
2024/03/04 09:07:20;;;;;;;0.55;0.55;;;;;;;11.41;58.49;101301.06;5092677;28;20028;-79
2024/03/04 09:09:52;;;;;;;0.10;0.10;;;;;;;11.43;58.44;101309.00;5077565;28;20035;-79
2024/03/04 09:12:18;;;;;;;0.10;0.10;;;;;;;11.38;57.45;101300.25;5075611;28;20496;-79
2024/03/04 09:14:44;;;;;;;0.10;0.10;;;;;;;11.42;59.31;101316.09;5076341;28;20033;-77
2024/03/04 09:17:11;;;;;;;0.10;0.10;;;;;;;11.44;58.87;101313.38;5076503;28;20055;-78
2024/03/04 09:19:41;;;;;;;0.10;0.10;;;;;;;11.44;57.95;101318.69;5075197;28;20051;-79
2024/03/04 09:22:07;;;;;;;0.10;0.10;;;;;;;11.45;58.45;101312.50;5087991;28;20617;-79
2024/03/04 09:24:34;;;;;;;0.13;0.13;;;;;;;11.56;58.60;101317.63;5079444;28;20029;-79
2024/03/04 09:27:02;;;;;;;0.10;0.10;;;;;;;11.57;57.64;101322.91;5084212;28;20497;-79
2024/03/04 09:29:28;;;;;;;0.10;0.10;;;;;;;11.58;56.74;101326.47;5092522;28;20020;-78
2024/03/04 09:31:55;;;;;;;0.10;0.10;;;;;;;11.61;57.95;101321.09;5082722;28;20541;-78
2024/03/04 09:34:21;;;;;;;0.10;0.10;;;;;;;11.60;56.28;101322.88;5076225;28;20029;-78
2024/03/04 09:36:47;;;;;;;0.25;0.25;;;;;;;11.62;56.26;101320.19;5092529;28;20440;-78
2024/03/04 09:39:13;;;;;;;0.10;0.10;;;;;;;11.76;57.38;101315.53;5100411;28;20483;-79
2024/03/04 09:41:40;;;;;;;0.10;0.10;;;;;;;11.84;57.27;101315.41;5103048;28;20078;-78
2024/03/04 09:44:06;;;;;;;0.10;0.10;;;;;;;11.88;57.17;101318.88;5106571;28;20036;-79
2024/03/04 09:46:35;;;;;;;0.10;0.10;;;;;;;11.89;56.81;101321.50;5100818;28;20020;-78
2024/03/04 09:49:02;;;;;;;0.17;0.17;;;;;;;11.93;56.08;101325.84;5094372;28;20069;-78
2024/03/04 09:51:31;;;;;;;0.10;0.10;;;;;;;11.91;55.04;101335.63;5104199;28;20115;-78
2024/03/04 09:53:59;;;;;;;0.10;0.10;;;;;;;11.92;55.68;101326.75;5098323;28;20510;-78
2024/03/04 09:56:26;;;;;;;0.10;0.10;;;;;;;11.94;55.48;101324.94;5087284;28;20439;-78
2024/03/04 09:58:53;;;;;;;0.13;0.13;;;;;;;11.93;55.37;101328.50;5084189;28;20027;-78
2024/03/04 10:01:20;;;;;;;0.10;0.10;;;;;;;11.95;55.27;101334.66;5092550;28;20098;-78
2024/03/04 10:03:47;;;;;;;0.10;0.10;;;;;;;12.02;55.21;101327.47;5101033;28;20036;-78
2024/03/04 10:06:14;;;;;;;0.10;0.10;;;;;;;12.12;55.72;101333.50;5085988;28;20025;-78
2024/03/04 10:08:40;;;;;;;0.10;0.10;;;;;;;12.07;54.31;101325.63;5081595;28;20037;-78
2024/03/04 10:11:06;;;;;;;0.10;0.10;;;;;;;12.14;54.79;101334.38;5087547;28;20028;-79
2024/03/04 10:13:34;;;;;;;0.10;0.10;;;;;;;12.17;54.65;101331.63;5081794;28;20020;-78
2024/03/04 10:16:00;;;;;;;0.10;0.10;;;;;;;12.19;54.18;101332.50;5087919;28;20056;-78
2024/03/04 10:18:28;;;;;;;0.10;0.10;;;;;;;12.25;54.24;101332.38;5084212;28;20416;-78
2024/03/04 10:20:57;;;;;;;0.10;0.10;;;;;;;12.28;53.88;101334.09;5082579;28;20055;-79
2024/03/04 10:23:23;;;;;;;0.47;0.47;;;;;;;12.34;54.01;101333.13;5078677;28;20020;-78
2024/03/04 10:26:10;;;;;;;0.00;0.00;;;;;;;12.54;53.99;101336.25;5077293;28;20635;-78
2024/03/04 10:28:40;;;;;;;0.10;0.10;;;;;;;12.46;53.42;101339.06;5082311;28;20025;-79
2024/03/04 10:31:11;;;;;;;0.10;0.10;;;;;;;12.53;53.14;101342.47;5081423;28;20024;-78
2024/03/04 10:33:39;;;;;;;0.05;0.05;;;;;;;12.60;53.76;101336.13;5083286;28;20031;-78
2024/03/04 10:36:15;;;;;;;0.10;0.10;;;;;;;12.77;53.18;101337.53;5075837;28;20052;-78
2024/03/04 10:38:45;;;;;;;8.88;2.25;;;;;;;12.80;52.99;101337.50;5081918;28;20077;-78
2024/03/04 10:41:16;;;;;;;0.10;0.10;;;;;;;12.87;50.68;101332.91;5077624;28;20029;-78
2024/03/04 10:43:44;;;;;;;0.47;0.47;;;;;;;12.81;51.18;101331.28;5076096;28;20593;-78
2024/03/04 10:46:10;;;;;;;0.10;0.10;;;;;;;12.89;50.99;101325.78;5074855;28;20622;-78
2024/03/04 10:48:39;;;;;;;0.10;0.10;;;;;;;12.93;51.70;101325.69;5086111;28;20029;-77
2024/03/04 10:51:06;;;;;;;0.40;0.40;;;;;;;12.90;49.89;101320.41;5082600;28;20024;-77
2024/03/04 10:53:34;;;;;;;0.28;0.28;;;;;;;12.90;49.67;101317.75;5079083;28;20032;-77
2024/03/04 10:56:05;;;;;;;0.10;0.10;;;;;;;12.93;50.14;101311.50;5087092;28;20105;-77
2024/03/04 10:58:34;;;;;;;2.90;0.63;;;;;;;13.01;49.24;101312.19;5076353;28;20021;-76
2024/03/04 11:01:06;;;;;;;0.20;0.20;;;;;;;13.12;48.94;101319.91;5077560;28;20025;-78
2024/03/04 11:03:36;;;;;;;0.40;0.40;;;;;;;13.19;47.28;101312.69;5077669;28;20530;-77
2024/03/04 11:06:07;;;;;;;0.10;0.10;;;;;;;13.22;47.24;101313.50;5076562;28;20028;-78
2024/03/04 11:08:38;;;;;;;0.10;0.10;;;;;;;13.20;45.97;101317.97;5085036;28;20075;-77
2024/03/04 11:11:13;;;;;;;0.20;0.20;;;;;;;13.28;46.93;101320.44;5076063;28;20040;-78
2024/03/04 11:16:30;;;;;;;0.10;0.10;;;;;;;13.32;45.83;101313.25;5113335;27;20391;-79
2024/03/04 11:21:40;;;;;;;0.40;0.35;;;;;;;13.52;46.25;101320.78;5071736;28;21147;-78
2024/03/04 11:24:08;;;;;;;0.20;0.20;;;;;;;13.65;46.27;101321.38;5052053;28;20025;-78
2024/03/04 11:26:39;;;;;;;0.10;0.10;;;;;;;13.80;45.91;101320.13;5052450;28;20373;-78
2024/03/04 11:29:06;;;;;;;0.20;0.20;;;;;;;13.91;45.53;101328.69;5050872;28;20029;-77
2024/03/04 11:31:33;;;;;;;0.10;0.10;;;;;;;14.00;46.44;101331.09;5052446;28;20037;-78